createdAt,value
2023-02-28T00:01:48.795Z,6.20
2023-02-28T00:51:42.112Z,6.08
2023-02-28T00:54:08.905Z,6.12
2023-02-28T00:56:35.697Z,6.10
2023-02-28T00:59:02.437Z,6.12
2023-02-28T01:01:29.911Z,6.13
2023-02-28T01:03:56.900Z,6.14
2023-02-28T01:06:23.785Z,6.13
2023-02-28T01:08:50.833Z,6.12
2023-02-28T01:11:18.489Z,6.13
2023-02-28T01:13:46.071Z,6.09
2023-02-28T01:16:13.452Z,6.11
2023-02-28T01:18:40.832Z,6.07
2023-02-28T01:21:09.142Z,6.09
2023-02-28T01:23:36.124Z,6.11
2023-02-28T01:26:06.062Z,6.13
2023-02-28T01:28:32.820Z,6.12
2023-02-28T01:30:59.607Z,6.12
2023-02-28T01:33:26.607Z,6.09
2023-02-28T01:35:56.499Z,6.07
2023-02-28T01:38:23.595Z,6.04
2023-02-28T01:40:50.841Z,6.03
2023-02-28T01:43:20.898Z,5.99
2023-02-28T01:45:47.688Z,6.03
2023-02-28T01:48:14.582Z,6.07
2023-02-28T01:50:43.387Z,6.04
2023-02-28T01:53:14.282Z,6.06
2023-02-28T01:55:42.352Z,6.07
2023-02-28T01:58:10.240Z,6.06
2023-02-28T02:00:37.072Z,6.10
2023-02-28T02:03:09.837Z,6.08
2023-02-28T02:05:38.000Z,6.10
2023-02-28T02:08:06.446Z,6.07
2023-02-28T02:10:36.276Z,6.04
2023-02-28T02:13:09.384Z,6.04
2023-02-28T02:15:41.109Z,6.02
2023-02-28T02:18:17.596Z,5.99
2023-02-28T02:20:45.700Z,5.95
2023-02-28T02:23:15.846Z,5.96
2023-02-28T02:25:47.099Z,5.93
2023-02-28T02:28:25.931Z,5.93
2023-02-28T02:30:54.489Z,5.89
2023-02-28T02:33:24.715Z,5.89
2023-02-28T02:35:52.580Z,5.87
2023-02-28T02:38:27.406Z,5.87
2023-02-28T02:41:00.708Z,5.89
2023-02-28T02:43:32.842Z,5.90
2023-02-28T02:46:04.653Z,5.92
2023-02-28T02:48:33.803Z,5.90
2023-02-28T02:51:02.255Z,5.86
2023-02-28T02:53:31.601Z,5.89
2023-02-28T02:55:59.857Z,5.86
2023-02-28T02:58:29.305Z,5.83
2023-02-28T03:00:59.235Z,5.84
2023-02-28T03:03:29.783Z,5.87
2023-02-28T03:05:58.207Z,5.93
2023-02-28T03:08:26.251Z,5.91
2023-02-28T03:10:57.038Z,5.92
2023-02-28T03:13:26.853Z,5.94
2023-02-28T03:15:58.882Z,5.93
2023-02-28T03:18:28.711Z,5.95
2023-02-28T03:20:58.662Z,5.97
2023-02-28T03:23:32.003Z,5.98
2023-02-28T03:26:01.854Z,5.99
2023-02-28T03:28:29.057Z,5.98
2023-02-28T03:30:59.377Z,5.98
2023-02-28T03:33:29.454Z,5.96
2023-02-28T03:36:00.610Z,5.92
2023-02-28T03:38:31.065Z,5.88
2023-02-28T03:41:01.486Z,5.89
2023-02-28T03:43:30.821Z,5.89
2023-02-28T03:45:59.008Z,5.89
2023-02-28T03:48:31.868Z,5.89
2023-02-28T03:51:00.288Z,5.88
2023-02-28T03:53:30.520Z,5.87
2023-02-28T03:56:02.895Z,5.83
2023-02-28T03:58:34.121Z,5.82
2023-02-28T04:01:09.340Z,5.82
2023-02-28T04:03:38.161Z,5.79
2023-02-28T04:06:05.982Z,5.80
2023-02-28T04:08:32.750Z,5.81
2023-02-28T04:11:05.397Z,5.78
2023-02-28T04:13:32.135Z,5.73
2023-02-28T04:15:59.070Z,5.70
2023-02-28T04:18:25.836Z,5.68
2023-02-28T04:20:52.662Z,5.66
2023-02-28T04:23:19.545Z,5.63
2023-02-28T04:25:46.332Z,5.65
2023-02-28T04:28:13.081Z,5.65
2023-02-28T04:30:40.413Z,5.64
2023-02-28T04:33:07.319Z,5.60
2023-02-28T04:35:34.150Z,5.57
2023-02-28T04:38:00.837Z,5.58
2023-02-28T04:40:27.565Z,5.55
2023-02-28T04:42:54.265Z,5.53
2023-02-28T04:45:20.956Z,5.53
2023-02-28T04:47:47.825Z,5.51
2023-02-28T04:50:14.562Z,5.50
2023-02-28T04:52:41.300Z,5.53
2023-02-28T04:55:08.321Z,5.54
2023-02-28T04:57:35.086Z,5.53
2023-02-28T05:00:01.963Z,5.54
2023-02-28T05:02:28.770Z,5.55
2023-02-28T05:04:55.943Z,5.54
2023-02-28T05:07:22.720Z,5.55
2023-02-28T05:09:49.404Z,5.59
2023-02-28T05:12:16.270Z,5.57
2023-02-28T05:14:43.270Z,5.57
2023-02-28T05:17:10.276Z,5.58
2023-02-28T05:19:37.744Z,5.56
2023-02-28T05:22:04.496Z,5.59
2023-02-28T05:24:31.535Z,5.60
2023-02-28T05:26:58.274Z,5.59
2023-02-28T05:29:25.071Z,5.59
2023-02-28T05:31:52.050Z,5.57
2023-02-28T05:34:21.312Z,5.57
2023-02-28T05:36:48.208Z,5.59
2023-02-28T05:39:14.954Z,5.58
2023-02-28T05:41:42.658Z,5.59
2023-02-28T05:44:09.801Z,5.63
2023-02-28T05:46:36.553Z,5.65
2023-02-28T05:49:03.561Z,5.66
2023-02-28T05:51:30.814Z,5.67
2023-02-28T05:53:59.963Z,5.68
2023-02-28T05:56:26.783Z,5.68
2023-02-28T05:58:53.620Z,5.66
2023-02-28T06:01:22.022Z,5.66
2023-02-28T06:03:48.779Z,5.68
2023-02-28T06:06:15.585Z,5.72
2023-02-28T06:08:44.580Z,5.72
2023-02-28T06:11:11.454Z,5.66
2023-02-28T06:13:38.239Z,5.70
2023-02-28T06:16:07.138Z,5.67
2023-02-28T06:18:34.270Z,5.61
2023-02-28T06:21:01.055Z,5.65
2023-02-28T06:23:28.173Z,5.64
2023-02-28T06:25:58.922Z,5.67
2023-02-28T06:28:26.739Z,5.68
2023-02-28T06:30:53.680Z,5.68
2023-02-28T06:33:20.583Z,5.67
2023-02-28T06:35:51.193Z,5.67
2023-02-28T06:38:19.366Z,5.66
2023-02-28T06:40:46.475Z,5.66
2023-02-28T06:43:14.534Z,5.67
2023-02-28T06:45:43.362Z,5.67
2023-02-28T06:48:12.350Z,5.68
2023-02-28T06:50:39.333Z,5.68
2023-02-28T06:53:06.200Z,5.67
2023-02-28T06:55:33.000Z,5.70
2023-02-28T06:57:59.995Z,5.72
2023-02-28T07:00:26.938Z,5.75
2023-02-28T07:02:55.173Z,5.76
2023-02-28T07:05:22.048Z,5.76
2023-02-28T07:07:48.860Z,5.73
2023-02-28T07:10:20.165Z,5.74
2023-02-28T07:12:47.387Z,5.75
2023-02-28T07:15:14.185Z,5.76
2023-02-28T07:17:40.965Z,5.77
2023-02-28T07:20:08.347Z,5.82
2023-02-28T07:22:35.276Z,5.90
2023-02-28T07:25:02.430Z,5.85
2023-02-28T07:27:29.247Z,5.86
2023-02-28T07:29:56.085Z,5.91
2023-02-28T07:32:22.965Z,5.94
2023-02-28T07:34:49.790Z,5.96
2023-02-28T07:37:16.777Z,6.00
2023-02-28T07:39:43.728Z,6.09
2023-02-28T07:42:13.047Z,6.16
2023-02-28T07:44:41.750Z,6.20
2023-02-28T07:47:09.758Z,6.27
2023-02-28T07:49:37.669Z,6.35
2023-02-28T07:52:06.000Z,6.38
2023-02-28T07:54:33.773Z,6.39
2023-02-28T07:57:01.129Z,6.40
2023-02-28T07:59:30.055Z,6.43
2023-02-28T08:02:00.027Z,6.61
2023-02-28T08:04:27.242Z,6.93
2023-02-28T08:06:54.319Z,6.92
2023-02-28T08:09:21.730Z,6.95
2023-02-28T08:11:48.954Z,6.92
2023-02-28T08:14:18.849Z,6.88
2023-02-28T08:16:45.780Z,6.87
2023-02-28T08:19:13.020Z,6.95
2023-02-28T08:21:42.025Z,7.03
2023-02-28T08:24:09.217Z,7.03
2023-02-28T08:26:36.155Z,7.07
2023-02-28T08:29:03.294Z,7.11
2023-02-28T08:31:30.675Z,7.16
2023-02-28T08:34:00.152Z,7.25
2023-02-28T08:36:30.037Z,7.32
2023-02-28T08:38:58.232Z,7.42
2023-02-28T08:41:25.335Z,7.43
2023-02-28T08:43:55.210Z,7.49
2023-02-28T08:46:22.798Z,7.50
2023-02-28T08:48:53.270Z,7.35
2023-02-28T08:51:23.392Z,7.32
2023-02-28T08:53:50.658Z,7.31
2023-02-28T08:56:19.159Z,7.29
2023-02-28T08:58:47.480Z,7.32
2023-02-28T09:01:16.117Z,7.35
2023-02-28T09:03:43.920Z,7.40
2023-02-28T09:06:11.828Z,7.46
2023-02-28T09:08:39.999Z,7.49
2023-02-28T09:11:18.462Z,7.54
2023-02-28T09:13:46.351Z,7.59
2023-02-28T09:16:15.082Z,7.63
2023-02-28T09:18:42.878Z,7.73
2023-02-28T09:21:13.426Z,7.80
2023-02-28T09:23:40.467Z,7.83
2023-02-28T09:26:07.588Z,7.88
2023-02-28T09:28:34.707Z,7.91
2023-02-28T09:31:01.885Z,7.88
2023-02-28T09:33:29.600Z,7.85
2023-02-28T09:35:59.512Z,7.84
2023-02-28T09:38:26.726Z,7.79
2023-02-28T09:40:59.494Z,7.85
2023-02-28T09:43:28.680Z,7.89
2023-02-28T09:46:00.173Z,7.94
2023-02-28T09:48:29.355Z,8.03
2023-02-28T09:51:01.350Z,8.11
2023-02-28T09:53:35.239Z,8.19
2023-02-28T09:56:03.710Z,8.28
2023-02-28T09:58:37.274Z,8.34
2023-02-28T10:01:08.289Z,8.37
2023-02-28T10:03:40.396Z,8.36
2023-02-28T10:06:09.845Z,8.34
2023-02-28T10:08:42.708Z,8.34
2023-02-28T10:11:12.956Z,8.37
2023-02-28T10:13:46.604Z,8.42
2023-02-28T10:16:18.005Z,8.43
2023-02-28T10:18:47.490Z,8.45
2023-02-28T10:21:20.384Z,8.50
2023-02-28T10:23:49.279Z,8.52
2023-02-28T10:26:18.508Z,8.51
2023-02-28T10:28:45.586Z,8.53
2023-02-28T10:31:16.846Z,8.55
2023-02-28T10:33:44.789Z,8.60
2023-02-28T10:36:15.032Z,8.67
2023-02-28T10:38:42.463Z,8.70
2023-02-28T10:41:11.205Z,8.73
2023-02-28T10:43:44.071Z,8.74
2023-02-28T10:46:20.665Z,8.74
2023-02-28T10:48:57.358Z,8.74
2023-02-28T10:51:24.466Z,8.74
2023-02-28T10:54:01.187Z,8.70
2023-02-28T10:56:30.619Z,8.69
2023-02-28T10:59:01.209Z,8.64
2023-02-28T11:01:29.977Z,8.58
2023-02-28T11:03:58.708Z,8.55
2023-02-28T11:06:28.967Z,8.37
2023-02-28T11:08:57.261Z,8.27
2023-02-28T11:11:26.587Z,8.31
2023-02-28T11:13:56.006Z,8.29
2023-02-28T11:16:24.751Z,8.28
2023-02-28T11:18:53.515Z,8.32
2023-02-28T11:21:24.062Z,8.34
2023-02-28T11:23:52.788Z,8.29
2023-02-28T11:26:37.044Z,8.37
2023-02-28T11:29:12.326Z,8.43
2023-02-28T11:31:39.402Z,8.45
2023-02-28T11:34:24.577Z,8.50
2023-02-28T11:36:53.023Z,8.58
2023-02-28T11:39:20.873Z,8.65
2023-02-28T11:41:48.387Z,8.70
2023-02-28T11:44:18.597Z,8.72
2023-02-28T11:46:50.882Z,8.77
2023-02-28T11:49:21.609Z,8.77
2023-02-28T11:51:53.642Z,8.78
2023-02-28T11:54:23.840Z,8.76
2023-02-28T11:56:55.340Z,8.69
2023-02-28T11:59:26.198Z,8.67
2023-02-28T12:01:56.660Z,8.67
2023-02-28T12:04:27.123Z,8.69
2023-02-28T12:06:58.788Z,8.74
2023-02-28T12:09:29.173Z,8.77
2023-02-28T12:11:59.406Z,8.77
2023-02-28T12:14:30.236Z,8.81
2023-02-28T12:16:58.965Z,8.88
2023-02-28T12:19:29.217Z,8.92
2023-02-28T12:21:59.491Z,8.94
2023-02-28T12:24:29.838Z,9.00
2023-02-28T12:26:59.941Z,9.06
2023-02-28T12:29:30.784Z,9.08
2023-02-28T12:32:01.275Z,9.15
2023-02-28T12:34:32.919Z,9.12
2023-02-28T12:37:02.935Z,9.10
2023-02-28T12:39:41.651Z,9.07
2023-02-28T12:42:21.008Z,9.11
2023-02-28T12:44:51.662Z,9.13
2023-02-28T12:47:19.752Z,9.17
2023-02-28T12:49:50.692Z,9.17
2023-02-28T12:52:21.520Z,9.05
2023-02-28T12:54:50.449Z,9.05
2023-02-28T12:57:26.630Z,9.08
2023-02-28T12:59:58.636Z,9.09
2023-02-28T13:02:28.725Z,9.04
2023-02-28T13:04:58.802Z,9.05
2023-02-28T13:07:28.782Z,9.02
2023-02-28T13:09:57.666Z,9.02
2023-02-28T13:12:25.432Z,9.01
2023-02-28T13:15:13.988Z,9.02
2023-02-28T13:17:42.846Z,9.05
2023-02-28T13:20:13.247Z,9.06
2023-02-28T13:22:43.510Z,9.10
2023-02-28T13:25:13.992Z,9.13
2023-02-28T13:27:42.052Z,9.09
2023-02-28T13:30:12.531Z,8.97
2023-02-28T13:32:41.750Z,8.98
2023-02-28T13:35:09.171Z,8.98
2023-02-28T13:37:43.170Z,8.95
2023-02-28T13:40:11.851Z,8.99
2023-02-28T13:42:48.510Z,9.05
2023-02-28T13:45:18.477Z,9.11
2023-02-28T13:47:49.602Z,9.17
2023-02-28T13:50:21.721Z,9.18
2023-02-28T13:52:57.399Z,9.17
2023-02-28T13:55:28.132Z,9.19
2023-02-28T13:57:56.498Z,9.20
2023-02-28T14:00:31.822Z,9.21
2023-02-28T14:03:06.416Z,9.26
2023-02-28T14:05:36.857Z,9.31
2023-02-28T14:08:06.877Z,9.23
2023-02-28T14:10:38.530Z,9.28
2023-02-28T14:13:09.131Z,9.16
2023-02-28T14:15:39.720Z,9.21
2023-02-28T14:18:10.054Z,9.20
2023-02-28T14:20:37.410Z,9.22
2023-02-28T14:23:07.397Z,9.16
2023-02-28T14:25:41.003Z,9.21
2023-02-28T14:28:11.127Z,9.21
2023-02-28T14:30:49.639Z,9.23
2023-02-28T14:33:18.236Z,9.21
2023-02-28T14:35:52.688Z,9.17
2023-02-28T14:38:23.034Z,9.17
2023-02-28T14:40:52.576Z,9.13
2023-02-28T14:43:21.904Z,9.15
2023-02-28T14:45:52.010Z,9.14
2023-02-28T14:48:20.678Z,9.16
2023-02-28T14:50:50.772Z,9.10
2023-02-28T14:53:20.649Z,9.11
2023-02-28T14:55:48.801Z,9.11
2023-02-28T14:58:18.985Z,9.11
2023-02-28T15:00:49.132Z,9.16
2023-02-28T15:03:19.197Z,9.17
2023-02-28T15:05:52.944Z,9.19
2023-02-28T15:08:21.353Z,9.17
2023-02-28T15:10:51.558Z,9.19
2023-02-28T15:13:19.031Z,9.06
2023-02-28T15:16:01.957Z,9.08
2023-02-28T15:18:32.730Z,9.11
2023-02-28T15:21:04.010Z,9.09
2023-02-28T15:23:31.829Z,9.12
2023-02-28T15:25:59.161Z,9.18
2023-02-28T15:28:26.340Z,9.18
2023-02-28T15:30:55.269Z,9.26
2023-02-28T15:33:24.194Z,9.32
2023-02-28T15:35:51.168Z,9.36
2023-02-28T15:38:21.254Z,9.36
2023-02-28T15:40:55.059Z,9.38
2023-02-28T15:43:25.266Z,9.39
2023-02-28T15:45:56.621Z,9.37
2023-02-28T15:48:26.104Z,9.41
2023-02-28T15:50:55.085Z,9.40
2023-02-28T15:53:24.950Z,9.43
2023-02-28T15:55:55.037Z,9.43
2023-02-28T15:58:23.071Z,9.43
2023-02-28T16:01:02.886Z,9.45
2023-02-28T16:03:39.234Z,9.51
2023-02-28T16:06:11.727Z,9.55
2023-02-28T16:08:38.739Z,9.52
2023-02-28T16:11:05.903Z,9.53
2023-02-28T16:13:32.950Z,9.51
2023-02-28T16:16:01.984Z,9.47
2023-02-28T16:18:29.133Z,9.45
2023-02-28T16:20:56.140Z,9.41
2023-02-28T16:23:23.671Z,9.37
2023-02-28T16:25:54.280Z,9.39
2023-02-28T16:28:22.623Z,9.38
2023-02-28T16:30:52.862Z,9.34
2023-02-28T16:33:20.200Z,9.35
2023-02-28T16:35:47.193Z,9.33
2023-02-28T16:38:14.427Z,9.34
2023-02-28T16:40:41.764Z,9.36
2023-02-28T16:43:11.585Z,9.33
2023-02-28T16:45:38.574Z,9.30
2023-02-28T16:48:05.764Z,9.22
2023-02-28T16:50:36.030Z,9.27
2023-02-28T16:53:03.061Z,9.25
2023-02-28T16:55:30.368Z,9.27
2023-02-28T16:57:58.522Z,9.26
2023-02-28T17:00:26.709Z,9.27
2023-02-28T17:02:53.903Z,9.24
2023-02-28T17:05:21.208Z,9.26
2023-02-28T17:07:48.789Z,9.24
2023-02-28T17:10:33.000Z,9.26
2023-02-28T17:13:09.577Z,9.29
2023-02-28T17:15:42.212Z,9.30
2023-02-28T17:18:14.968Z,9.30
2023-02-28T17:20:46.952Z,9.30
2023-02-28T17:23:14.266Z,9.31
2023-02-28T17:25:41.420Z,9.33
2023-02-28T17:28:10.555Z,9.37
2023-02-28T17:30:47.085Z,9.36
2023-02-28T17:33:14.338Z,9.24
2023-02-28T17:35:43.568Z,9.27
2023-02-28T17:38:13.767Z,9.22
2023-02-28T17:40:40.772Z,9.24
2023-02-28T17:43:07.923Z,9.27
2023-02-28T17:45:37.767Z,9.28
2023-02-28T17:48:05.483Z,9.27
2023-02-28T17:50:38.509Z,9.26
2023-02-28T17:53:05.579Z,9.25
2023-02-28T17:55:33.044Z,9.28
2023-02-28T17:58:00.171Z,9.26
2023-02-28T18:00:27.828Z,9.25
2023-02-28T18:02:56.254Z,9.26
2023-02-28T18:05:23.763Z,9.28
2023-02-28T18:07:50.902Z,9.23
2023-02-28T18:10:21.235Z,9.15
2023-02-28T18:12:49.748Z,9.16
2023-02-28T18:15:18.722Z,9.16
2023-02-28T18:17:45.778Z,9.12
2023-02-28T18:20:13.454Z,9.12
2023-02-28T18:22:41.653Z,9.08
2023-02-28T18:25:11.821Z,9.06
2023-02-28T18:27:39.540Z,9.07
2023-02-28T18:30:06.898Z,9.06
2023-02-28T18:32:33.901Z,9.08
2023-02-28T18:35:00.952Z,9.11
2023-02-28T18:37:28.154Z,9.10
2023-02-28T18:39:55.196Z,9.12
2023-02-28T18:42:22.231Z,9.12
2023-02-28T18:44:49.774Z,9.12
2023-02-28T18:47:17.009Z,9.06
2023-02-28T18:49:44.276Z,9.05
2023-02-28T18:52:11.373Z,9.05
2023-02-28T18:54:38.512Z,9.04
2023-02-28T18:57:05.746Z,9.06
2023-02-28T18:59:32.658Z,9.05
2023-02-28T19:01:59.701Z,8.99
2023-02-28T19:04:26.815Z,9.04
2023-02-28T19:06:56.348Z,9.04
2023-02-28T19:09:23.554Z,9.06
2023-02-28T19:11:50.426Z,9.07
2023-02-28T19:14:17.311Z,9.08
2023-02-28T19:16:45.394Z,9.09
2023-02-28T19:19:12.383Z,9.00
2023-02-28T19:21:39.399Z,9.02
2023-02-28T19:24:06.532Z,9.01
2023-02-28T19:26:33.418Z,8.99
2023-02-28T19:29:02.530Z,9.00
2023-02-28T19:31:29.595Z,9.00
2023-02-28T19:33:59.348Z,8.90
2023-02-28T19:36:27.225Z,8.90
2023-02-28T19:38:54.182Z,8.89
2023-02-28T19:41:21.179Z,8.89
2023-02-28T19:43:48.150Z,8.90
2023-02-28T19:46:15.893Z,8.86
2023-02-28T19:48:45.404Z,8.77
2023-02-28T19:51:15.190Z,8.80
2023-02-28T19:53:44.751Z,8.82
2023-02-28T19:56:12.683Z,8.81
2023-02-28T19:58:40.778Z,8.85
2023-02-28T20:01:10.560Z,8.85
2023-02-28T20:03:38.910Z,8.90
2023-02-28T20:06:08.869Z,8.93
2023-02-28T20:08:40.058Z,8.93
2023-02-28T20:11:08.455Z,8.94
2023-02-28T20:13:35.594Z,8.92
2023-02-28T20:16:03.737Z,8.94
2023-02-28T20:18:30.656Z,8.86
2023-02-28T20:20:57.719Z,8.87
2023-02-28T20:23:25.169Z,8.85
2023-02-28T20:25:52.469Z,8.85
2023-02-28T20:28:19.902Z,8.82
2023-02-28T20:30:49.184Z,8.84
2023-02-28T20:33:16.906Z,8.87
2023-02-28T20:35:44.243Z,8.85
2023-02-28T20:38:11.894Z,8.84
2023-02-28T20:40:39.125Z,8.87
2023-02-28T20:43:06.247Z,8.83
2023-02-28T20:45:33.268Z,8.83
2023-02-28T20:48:00.172Z,8.81
2023-02-28T20:50:27.113Z,8.76
2023-02-28T20:52:54.012Z,8.75
2023-02-28T20:55:21.114Z,8.73
2023-02-28T20:57:48.123Z,8.68
2023-02-28T21:00:19.601Z,8.68
2023-02-28T21:02:46.536Z,8.66
2023-02-28T21:05:13.928Z,8.67
2023-02-28T21:07:40.930Z,8.66
2023-02-28T21:10:09.492Z,8.70
2023-02-28T21:12:36.814Z,8.72
2023-02-28T21:15:04.351Z,8.74
2023-02-28T21:17:33.439Z,8.66
2023-02-28T21:20:00.579Z,8.61
2023-02-28T21:22:27.661Z,8.63
2023-02-28T21:24:54.818Z,8.60
2023-02-28T21:27:21.665Z,8.61
2023-02-28T21:29:48.616Z,8.60
2023-02-28T21:32:15.726Z,8.57
2023-02-28T21:34:42.911Z,8.57
2023-02-28T21:37:11.387Z,8.62
2023-02-28T21:39:38.336Z,8.63
2023-02-28T21:42:05.458Z,8.66
2023-02-28T21:44:34.972Z,8.61
2023-02-28T21:47:02.682Z,8.53
2023-02-28T21:49:30.853Z,8.56
2023-02-28T21:51:58.264Z,8.55
2023-02-28T21:54:25.626Z,8.54
2023-02-28T21:56:52.563Z,8.54
2023-02-28T21:59:20.488Z,8.53
2023-02-28T22:01:50.635Z,8.55
2023-02-28T22:04:21.741Z,8.56
2023-02-28T22:06:50.225Z,8.54
2023-02-28T22:09:17.416Z,8.56
2023-02-28T22:11:44.954Z,8.56
2023-02-28T22:14:12.651Z,8.53
2023-02-28T22:16:50.720Z,8.54
2023-02-28T22:19:19.852Z,8.53
2023-02-28T22:21:47.820Z,8.53
2023-02-28T22:24:18.147Z,8.42
2023-02-28T22:26:45.360Z,8.45
2023-02-28T22:29:12.315Z,8.37
2023-02-28T22:31:39.335Z,8.39
2023-02-28T22:34:08.062Z,8.39
2023-02-28T22:36:35.675Z,8.32
2023-02-28T22:39:02.726Z,8.24
2023-02-28T22:41:30.257Z,8.17
2023-02-28T22:43:58.630Z,8.17
2023-02-28T22:46:26.394Z,8.14
2023-02-28T22:48:56.105Z,8.08
2023-02-28T22:51:25.617Z,8.09
2023-02-28T22:53:54.065Z,8.01
2023-02-28T22:56:22.423Z,8.04
2023-02-28T22:58:50.759Z,8.06
2023-02-28T23:01:17.932Z,8.06
2023-02-28T23:03:45.296Z,8.04
2023-02-28T23:06:15.617Z,8.03
2023-02-28T23:08:43.316Z,8.06
2023-02-28T23:11:11.018Z,8.10
2023-02-28T23:13:37.891Z,8.13
2023-02-28T23:16:06.415Z,8.15
2023-02-28T23:18:33.601Z,8.12
2023-02-28T23:21:01.089Z,8.11
2023-02-28T23:23:27.987Z,8.08
2023-02-28T23:25:54.828Z,7.97
2023-02-28T23:28:21.628Z,7.96
2023-02-28T23:30:48.467Z,7.94
2023-02-28T23:33:15.554Z,7.93
2023-02-28T23:35:42.942Z,7.95
2023-02-28T23:38:09.926Z,7.96
2023-02-28T23:40:36.874Z,7.98
2023-02-28T23:43:03.786Z,7.99
2023-02-28T23:45:30.851Z,7.97
2023-02-28T23:47:58.047Z,8.00
2023-02-28T23:50:26.261Z,8.00
2023-02-28T23:52:53.446Z,7.99
2023-02-28T23:55:20.947Z,8.04
2023-02-28T23:57:48.688Z,8.07
